Flight Track Log - Related Links

Times and Time Zones

All times are in EDT time to prevent confusion due to time zone crossing. See the SQH78 flight status page for this flight to view local times or setup timezone preferences in your user account.

Time Position Orientation Groundspeed Altitude Reporting Facility
EDT Latitude Longitude Course Direction KTS MPH feet Rate Location/Type
Fri 07:26:47 AM 35.0333 -89.9667 239° Southwest 101 116 800  Level KMEM
Fri 07:27:41 AM 35.0167 -90.0000 239° Southwest 144 166 2,000 1,526 Climbing KMEM
Fri 07:28:41 AM 35.0000 -90.0333 239° Southwest 142 163 3,700 1,632 Climbing KMEM
Fri 07:29:35 AM 35.0000 -90.0833 270° West 147 169 5,100 1,579 Climbing KMEM
Fri 07:30:35 AM 35.0000 -90.1333 270° West 144 166 6,700 1,550 Climbing KMEM
Fri 07:31:35 AM 34.9833 -90.1833 248° West 146 168 8,200 1,641 Climbing KMEM
Fri 07:32:32 AM 34.9822 -90.2278 268° West 153 176 9,900 1,641 Climbing Memphis Center
Fri 07:33:32 AM 34.9739 -90.2761 258° West 153 176 11,400 1,450 Climbing Memphis Center
Fri 07:34:32 AM 34.9656 -90.3242 258° West 153 176 12,800 1,350 Climbing Memphis Center
Fri 07:35:32 AM 34.9572 -90.3747 259° West 153 176 14,100 1,150 Climbing Memphis Center
Fri 07:36:32 AM 34.9489 -90.4206 258° West 153 176 15,100 1,150 Climbing Memphis Center
Fri 07:37:32 AM 34.9406 -90.4736 259° West 158 182 16,400 1,150 Climbing Memphis Center
Fri 07:38:32 AM 34.9322 -90.5267 259° West 163 188 17,400 1,000 Climbing Memphis Center
Fri 07:39:32 AM 34.9236 -90.5825 259° West 163 188 18,400 1,000 Climbing Memphis Center
Fri 07:40:32 AM 34.9153 -90.6383 260° West 163 188 19,400 800 Climbing Memphis Center
Fri 07:41:32 AM 34.9047 -90.6964 258° West 168 193 20,000 300 Climbing Memphis Center
Fri 07:42:32 AM 34.8919 -90.7647 257° West 192 221 20,000  Level Memphis Center
Fri 07:43:32 AM 34.8792 -90.8431 259° West 216 249 20,000  Level Memphis Center
Fri 07:44:32 AM 34.8642 -90.9239 257° West 231 266 20,000  Level Memphis Center
Fri 07:45:32 AM 34.8514 -91.0000 258° West 237 273 20,000  Level Memphis Center
Fri 07:46:32 AM 34.8383 -91.0783 259° West 237 273 20,000  Level Memphis Center
Fri 07:47:32 AM 34.8275 -91.1539 260° West 237 273 20,000  Level Memphis Center
Fri 07:48:32 AM 34.8144 -91.2322 259° West 237 273 20,000  Level Memphis Center
Fri 07:49:32 AM 34.8014 -91.3106 259° West 237 273 20,000  Level Memphis Center
Fri 07:50:32 AM 34.7883 -91.3864 258° West 237 273 20,000  Level Memphis Center
Fri 07:51:32 AM 34.7708 -91.4669 255° West 237 273 20,000  Level Memphis Center
Fri 07:52:32 AM 34.7578 -91.5425 258° West 237 273 20,000  Level Memphis Center
Fri 07:53:32 AM 34.7486 -91.6208 262° West 237 273 20,000  Level Memphis Center
Fri 07:54:32 AM 34.7353 -91.6864 256° West 237 273 20,000  Level Memphis Center
Fri 07:55:32 AM 34.7219 -91.7594 258° West 237 273 20,000  Level Memphis Center
Fri 07:56:32 AM 34.7067 -91.8375 257° West 237 273 20,000  Level Memphis Center
Fri 07:56:51 AM 34.7000 -91.8703 256° West 230 265 20,000  Level Memphis Center
Fri 07:57:32 AM 34.6911 -91.9156 257° West 237 273 20,000  Level Memphis Center
Fri 07:57:52 AM 34.6864 -91.9483 260° West 230 265 20,000  Level Memphis Center
Fri 07:58:32 AM 34.6817 -91.9886 262° West 237 273 20,000  Level Memphis Center
Fri 07:58:53 AM 34.6708 -92.0236 249° West 231 266 20,000  Level Memphis Center
Fri 07:59:47 AM 34.6617 -92.0892 260° West 231 266 20,000 -545 Level Memphis Center
Fri 08:00:32 AM 34.6525 -92.1472 259° West 237 273 19,100 -1,475 Descending Memphis Center
Fri 08:00:48 AM 34.6436 -92.1772 250° West 266 306 18,500 -1,500 Descending Memphis Center
Fri 08:01:32 AM 34.6344 -92.2325 259° West 254 292 17,600 -1,500 Descending Memphis Center
Fri 08:01:48 AM 34.6297 -92.2628 259° West 265 305 17,000 -1,400 Descending Memphis Center
Fri 08:02:32 AM 34.6228 -92.3156 261° West 259 298 16,200 -1,377 Descending Memphis Center
Fri 08:02:49 AM 34.6139 -92.3456 250° West 245 282 15,600 -1,600 Descending Memphis Center
Fri 08:03:32 AM 34.6089 -92.3961 263° West 253 291 14,600 -1,574 Descending Memphis Center
Fri 08:03:50 AM 34.6000 -92.4286 252° West 239 275 14,000 -1,400 Descending Memphis Center
Fri 08:04:32 AM 34.5931 -92.4714 259° West 242 278 13,200 -1,353 Descending Memphis Center
Fri 08:05:32 AM 34.5814 -92.5467 259° West 237 273 11,700 -1,500 Descending Memphis Center
Fri 08:06:32 AM 34.5653 -92.6244 256° West 237 273 10,200 -1,550 Descending Memphis Center
Fri 08:07:32 AM 34.5514 -92.6997 257° West 237 273 8,600 -1,500 Descending Memphis Center
Fri 08:08:32 AM 34.5375 -92.7775 258° West 242 278 7,200 -1,450 Descending Memphis Center
Fri 08:09:32 AM 34.5233 -92.8528 257° West 242 278 5,700 -1,500 Descending Memphis Center
Fri 08:10:32 AM 34.5117 -92.9256 259° West 229 264 4,200 -1,500 Descending Memphis Center
Fri 08:11:32 AM 34.4975 -92.9931 256° West 219 252 2,700 -1,300 Descending Memphis Center
Fri 08:12:32 AM 34.5006 -93.0486 274° West 192 221 1,600 650 Descending Memphis Center
Fri 08:13:32 AM 34.4844 -93.1211 255° West 192 221 4,000 2,400 Climbing Memphis Center

Login

Don't have an account? Register now (free) for customized features, flight alerts, and more!